Time;durP1;ratioP1;P1;durP2;ratioP2;P2;SDS_P1;SDS_P2;PMS_P1;PMS_P2;Temp;Humidity;BMP_temperature;BMP_pressure;BME280_temperature;BME280_humidity;BME280_pressure;Samples;Min_cycle;Max_cycle;Signal;HPM_P1;HPM_P2
2021/10/18 15:50:16;;;;;;;20.48;3.00;;;;;;;;;;5069502;28;20441;-64
2021/10/18 15:52:42;;;;;;;4.97;2.47;;;;;;;;;;5068025;28;20502;-63
2021/10/18 15:55:09;;;;;;;8.25;2.38;;;;;;;;;;5068004;28;20391;-63
2021/10/18 15:57:36;;;;;;;4.53;2.63;;;;;;;;;;5069328;28;20043;-63
2021/10/18 16:00:06;;;;;;;6.85;3.22;;;;;;;;;;5069335;28;20021;-65
2021/10/18 16:02:33;;;;;;;6.40;3.05;;;;;;;;;;5069072;28;20029;-64
2021/10/18 16:04:59;;;;;;;6.85;2.92;;;;;;;;;;5069075;28;20040;-64
2021/10/18 16:07:25;;;;;;;9.52;3.38;;;;;;;;;;5069062;28;20032;-64
2021/10/18 16:09:51;;;;;;;5.53;3.00;;;;;;;;;;5069014;28;20087;-68
2021/10/18 16:12:17;;;;;;;7.43;2.95;;;;;;;;;;5068810;28;20032;-63
2021/10/18 16:14:43;;;;;;;8.45;3.10;;;;;;;;;;5067545;28;20029;-63
2021/10/18 16:17:11;;;;;;;7.63;2.78;;;;;;;;;;5068761;28;20050;-66
2021/10/18 16:19:40;;;;;;;7.10;3.40;;;;;;;;;;5067705;28;20021;-65
2021/10/18 16:22:06;;;;;;;6.32;3.05;;;;;;;;;;5066672;28;20025;-64
2021/10/18 16:24:32;;;;;;;9.60;3.28;;;;;;;;;;5066881;28;20029;-64
2021/10/18 16:26:59;;;;;;;7.25;2.88;;;;;;;;;;5067398;28;20017;-66
2021/10/18 16:29:25;;;;;;;6.22;2.92;;;;;;;;;;5067246;28;20048;-64
2021/10/18 16:31:53;;;;;;;5.60;3.20;;;;;;;;;;5068669;28;20027;-64
2021/10/18 16:34:19;;;;;;;5.18;2.83;;;;;;;;;;5068465;28;20029;-64
2021/10/18 16:36:45;;;;;;;6.35;2.83;;;;;;;;;;5068472;28;20025;-64
2021/10/18 16:39:13;;;;;;;7.40;3.08;;;;;;;;;;5068402;28;20425;-66
2021/10/18 16:41:40;;;;;;;7.53;2.92;;;;;;;;;;5068210;28;20092;-65
2021/10/18 16:44:11;;;;;;;6.22;2.72;;;;;;;;;;5068186;28;20075;-64
2021/10/18 16:46:45;;;;;;;3.53;2.25;;;;;;;;;;5058468;28;20043;-64
2021/10/18 16:49:16;;;;;;;6.75;2.50;;;;;;;;;;5048079;28;20041;-65
2021/10/18 16:51:48;;;;;;;5.53;2.50;;;;;;;;;;5048200;28;20013;-64
2021/10/18 16:54:14;;;;;;;7.03;2.65;;;;;;;;;;5048277;28;20052;-64
2021/10/18 16:56:42;;;;;;;5.93;3.00;;;;;;;;;;5048293;28;20022;-64
2021/10/18 16:59:08;;;;;;;4.97;2.95;;;;;;;;;;5047978;28;20422;-64
2021/10/18 17:01:34;;;;;;;5.25;2.50;;;;;;;;;;5034952;28;20041;-64
2021/10/18 17:04:01;;;;;;;5.72;3.08;;;;;;;;;;5034882;28;20026;-65
2021/10/18 17:06:27;;;;;;;7.70;2.63;;;;;;;;;;5034919;28;20025;-66
2021/10/18 17:08:53;;;;;;;5.30;2.83;;;;;;;;;;5034734;28;20029;-65
2021/10/18 17:11:23;;;;;;;6.25;3.03;;;;;;;;;;5034430;28;20021;-65
2021/10/18 17:13:50;;;;;;;6.57;3.10;;;;;;;;;;5033447;28;20514;-66
2021/10/18 17:16:16;;;;;;;7.05;3.15;;;;;;;;;;5034610;28;20511;-63
2021/10/18 17:18:42;;;;;;;6.70;2.72;;;;;;;;;;5034623;28;20524;-63
2021/10/18 17:21:09;;;;;;;6.03;2.80;;;;;;;;;;5034335;28;20029;-64
2021/10/18 17:23:36;;;;;;;5.32;2.53;;;;;;;;;;5034650;28;20029;-65
2021/10/18 17:26:02;;;;;;;4.85;2.55;;;;;;;;;;5033229;28;20028;-64
2021/10/18 17:28:28;;;;;;;5.45;2.95;;;;;;;;;;5034221;28;20446;-64
2021/10/18 17:30:55;;;;;;;5.00;2.83;;;;;;;;;;5034207;28;20065;-63
2021/10/18 17:33:21;;;;;;;6.53;2.78;;;;;;;;;;5032914;28;20021;-66
2021/10/18 17:35:48;;;;;;;5.82;2.90;;;;;;;;;;5034663;28;20029;-66
2021/10/18 17:38:14;;;;;;;6.25;2.97;;;;;;;;;;5034342;28;20064;-65
2021/10/18 17:40:40;;;;;;;6.68;2.72;;;;;;;;;;5034059;28;20036;-63
2021/10/18 17:43:06;;;;;;;5.75;3.17;;;;;;;;;;5034225;28;20030;-64
2021/10/18 17:45:32;;;;;;;5.38;2.85;;;;;;;;;;5034070;28;20021;-64
2021/10/18 17:47:59;;;;;;;5.47;2.58;;;;;;;;;;5033801;28;20057;-63
2021/10/18 17:50:26;;;;;;;5.47;2.95;;;;;;;;;;5034001;28;20022;-64
2021/10/18 17:52:52;;;;;;;5.53;2.90;;;;;;;;;;5033915;28;20021;-64
2021/10/18 17:55:18;;;;;;;5.18;2.80;;;;;;;;;;5033893;28;20021;-63
2021/10/18 17:57:44;;;;;;;4.57;2.50;;;;;;;;;;5033943;28;20025;-64
2021/10/18 18:00:11;;;;;;;6.38;3.17;;;;;;;;;;5033622;28;20032;-64
2021/10/18 18:02:37;;;;;;;5.47;3.05;;;;;;;;;;5033888;28;20037;-64
2021/10/18 18:05:03;;;;;;;5.57;2.97;;;;;;;;;;5033912;28;20017;-64
2021/10/18 18:07:30;;;;;;;5.03;3.00;;;;;;;;;;5033771;28;20407;-65
2021/10/18 18:09:57;;;;;;;6.47;3.05;;;;;;;;;;5033261;28;20033;-63
2021/10/18 18:12:23;;;;;;;5.18;3.03;;;;;;;;;;5031154;28;20052;-64
2021/10/18 18:14:49;;;;;;;6.00;3.03;;;;;;;;;;5033703;28;20060;-64
2021/10/18 18:17:15;;;;;;;5.70;3.10;;;;;;;;;;5033653;28;20539;-63
2021/10/18 18:19:43;;;;;;;8.35;3.15;;;;;;;;;;5033499;28;20022;-63
2021/10/18 18:22:09;;;;;;;7.57;3.60;;;;;;;;;;5032081;28;20107;-63
2021/10/18 18:24:36;;;;;;;5.25;2.92;;;;;;;;;;5033311;28;20060;-64
2021/10/18 18:27:02;;;;;;;6.50;3.00;;;;;;;;;;5033238;28;20065;-64
2021/10/18 18:29:28;;;;;;;6.13;3.17;;;;;;;;;;5033504;28;20052;-64
2021/10/18 18:31:54;;;;;;;7.97;3.33;;;;;;;;;;5031998;28;20070;-65
2021/10/18 18:34:21;;;;;;;6.75;2.90;;;;;;;;;;5033385;28;20491;-66
2021/10/18 18:36:48;;;;;;;5.38;2.92;;;;;;;;;;5033282;28;20022;-65
2021/10/18 18:39:14;;;;;;;6.35;3.40;;;;;;;;;;5033052;28;20029;-64
2021/10/18 18:41:40;;;;;;;7.32;3.42;;;;;;;;;;5033149;28;20056;-64
2021/10/18 18:44:06;;;;;;;5.40;2.80;;;;;;;;;;5033067;28;20468;-64
2021/10/18 18:46:32;;;;;;;6.57;3.78;;;;;;;;;;5033067;28;20026;-65
2021/10/18 18:48:58;;;;;;;5.90;3.05;;;;;;;;;;5032842;28;20096;-64
2021/10/18 18:51:24;;;;;;;7.75;3.75;;;;;;;;;;5032663;28;20396;-64
2021/10/18 18:53:50;;;;;;;4.30;2.85;;;;;;;;;;5032596;28;20091;-64
2021/10/18 18:56:17;;;;;;;6.43;3.65;;;;;;;;;;5032605;28;20021;-64
2021/10/18 18:58:43;;;;;;;6.50;3.45;;;;;;;;;;5032938;28;20021;-64
2021/10/18 19:01:15;;;;;;;6.60;2.97;;;;;;;;;;5031193;28;20052;-64
2021/10/18 19:03:41;;;;;;;7.45;3.28;;;;;;;;;;5032791;28;20036;-64
2021/10/18 19:06:07;;;;;;;7.97;3.22;;;;;;;;;;5031406;28;20439;-64
2021/10/18 19:08:33;;;;;;;6.35;3.47;;;;;;;;;;5032726;28;20041;-66
2021/10/18 19:11:01;;;;;;;6.13;3.05;;;;;;;;;;5032269;28;20036;-64
2021/10/18 19:13:27;;;;;;;6.20;3.25;;;;;;;;;;5032421;28;20022;-63
2021/10/18 19:15:53;;;;;;;6.25;3.42;;;;;;;;;;5032550;28;20536;-64
2021/10/18 19:18:19;;;;;;;6.63;3.30;;;;;;;;;;5032296;28;20026;-65
2021/10/18 19:20:45;;;;;;;5.85;3.08;;;;;;;;;;5030883;28;20021;-64
2021/10/18 19:23:12;;;;;;;5.72;2.88;;;;;;;;;;5032091;28;20468;-64
2021/10/18 19:25:39;;;;;;;6.03;3.10;;;;;;;;;;5032388;28;20025;-64
2021/10/18 19:28:05;;;;;;;4.85;2.90;;;;;;;;;;5032273;28;20100;-65
2021/10/18 19:30:32;;;;;;;5.38;2.85;;;;;;;;;;5031935;28;20489;-64
2021/10/18 19:32:58;;;;;;;6.22;3.17;;;;;;;;;;5032089;28;20040;-64
2021/10/18 19:35:24;;;;;;;5.15;2.92;;;;;;;;;;5032094;28;20112;-64
2021/10/18 19:37:51;;;;;;;4.85;2.72;;;;;;;;;;5032243;28;20017;-64
2021/10/18 19:40:18;;;;;;;5.53;2.80;;;;;;;;;;5032308;28;20071;-64
2021/10/18 19:42:45;;;;;;;5.85;2.97;;;;;;;;;;5032163;28;20140;-64
2021/10/18 19:45:12;;;;;;;7.63;2.95;;;;;;;;;;5032008;28;20026;-64
2021/10/18 19:47:38;;;;;;;5.55;2.85;;;;;;;;;;5032341;28;20116;-64
2021/10/18 19:50:06;;;;;;;5.95;3.05;;;;;;;;;;5031818;28;20130;-63
2021/10/18 19:52:32;;;;;;;6.43;3.15;;;;;;;;;;5030606;28;20017;-64
2021/10/18 19:54:58;;;;;;;4.97;2.70;;;;;;;;;;5031910;28;20017;-64
2021/10/18 19:57:24;;;;;;;5.95;3.10;;;;;;;;;;5030554;28;20404;-64
2021/10/18 19:59:50;;;;;;;7.32;3.08;;;;;;;;;;5032266;28;20349;-64
2021/10/18 20:02:16;;;;;;;5.15;2.70;;;;;;;;;;5032122;28;20018;-64
2021/10/18 20:04:44;;;;;;;7.32;3.60;;;;;;;;;;5031865;28;20029;-64
2021/10/18 20:07:10;;;;;;;5.60;3.10;;;;;;;;;;5031742;28;20029;-65
2021/10/18 20:09:36;;;;;;;5.43;3.38;;;;;;;;;;5031761;28;20038;-63
2021/10/18 20:12:02;;;;;;;6.35;3.40;;;;;;;;;;5031765;28;20028;-64
2021/10/18 20:14:28;;;;;;;6.25;3.40;;;;;;;;;;5031672;28;20053;-64
2021/10/18 20:16:55;;;;;;;6.00;3.30;;;;;;;;;;5031962;28;20026;-66
2021/10/18 20:19:27;;;;;;;6.05;2.90;;;;;;;;;;5031835;28;20567;-64
2021/10/18 20:21:53;;;;;;;;;;;;;;;;;;5032174;28;20108;-66
2021/10/18 20:24:19;;;;;;;6.10;2.65;;;;;;;;;;5031658;28;20371;-64
2021/10/18 20:26:46;;;;;;;6.40;3.00;;;;;;;;;;5031694;28;20029;-64
2021/10/18 20:29:12;;;;;;;6.18;3.05;;;;;;;;;;5030368;28;20037;-64
2021/10/18 20:31:39;;;;;;;6.78;3.28;;;;;;;;;;5030358;28;20428;-65
2021/10/18 20:34:05;;;;;;;4.95;2.83;;;;;;;;;;5031764;28;20372;-66
2021/10/18 20:36:31;;;;;;;5.65;2.90;;;;;;;;;;5034370;28;20075;-64
2021/10/18 20:38:57;;;;;;;5.63;2.67;;;;;;;;;;5035445;28;20218;-66
2021/10/18 20:41:23;;;;;;;5.80;2.65;;;;;;;;;;5035426;28;20028;-65
2021/10/18 20:43:49;;;;;;;6.13;2.83;;;;;;;;;;5035155;28;20105;-65
2021/10/18 20:46:15;;;;;;;5.05;2.78;;;;;;;;;;5035627;28;20083;-65
2021/10/18 20:48:42;;;;;;;6.10;2.97;;;;;;;;;;5034842;28;20099;-64
2021/10/18 20:51:08;;;;;;;5.40;2.90;;;;;;;;;;5034964;28;20036;-65
2021/10/18 20:53:34;;;;;;;5.13;2.75;;;;;;;;;;5034939;28;20016;-64
2021/10/18 20:56:00;;;;;;;5.03;2.80;;;;;;;;;;5035282;28;20053;-64
2021/10/18 20:58:26;;;;;;;6.05;3.05;;;;;;;;;;5034991;28;20022;-64
2021/10/18 21:00:53;;;;;;;4.88;2.63;;;;;;;;;;5034999;28;20464;-63
2021/10/18 21:03:19;;;;;;;6.03;2.85;;;;;;;;;;5034976;28;20172;-64
2021/10/18 21:05:50;;;;;;;4.82;2.53;;;;;;;;;;5035004;28;20021;-64
2021/10/18 21:08:17;;;;;;;5.38;2.67;;;;;;;;;;5034778;28;20033;-64
2021/10/18 21:10:43;;;;;;;4.88;2.70;;;;;;;;;;5034732;28;20494;-64
2021/10/18 21:13:09;;;;;;;5.13;2.58;;;;;;;;;;5033246;28;20488;-64
2021/10/18 21:15:35;;;;;;;3.95;2.33;;;;;;;;;;5034551;28;20479;-64
2021/10/18 21:18:01;;;;;;;6.53;2.65;;;;;;;;;;5034551;28;20399;-64
2021/10/18 21:20:28;;;;;;;7.35;2.40;;;;;;;;;;5034580;28;20021;-63
2021/10/18 21:22:55;;;;;;;6.32;2.70;;;;;;;;;;5036862;28;20702;-63
2021/10/18 21:25:21;;;;;;;5.80;2.53;;;;;;;;;;5046520;28;20386;-64
2021/10/18 21:27:47;;;;;;;7.72;2.95;;;;;;;;;;5053994;28;20036;-63
2021/10/18 21:30:14;;;;;;;7.80;3.35;;;;;;;;;;5034199;28;20439;-64
2021/10/18 21:32:40;;;;;;;5.80;2.60;;;;;;;;;;5034014;28;20104;-64
2021/10/18 21:35:06;;;;;;;7.70;2.83;;;;;;;;;;5034474;28;21030;-63
2021/10/18 21:37:32;;;;;;;6.28;2.80;;;;;;;;;;5034097;28;20025;-63
2021/10/18 21:39:58;;;;;;;7.15;2.92;;;;;;;;;;5032687;28;20110;-64
2021/10/18 21:42:25;;;;;;;5.55;2.95;;;;;;;;;;5033845;28;20026;-64
2021/10/18 21:44:51;;;;;;;5.35;2.83;;;;;;;;;;5033990;28;20124;-63
2021/10/18 21:47:17;;;;;;;6.70;3.05;;;;;;;;;;5033616;28;20396;-66
2021/10/18 21:49:44;;;;;;;7.25;3.00;;;;;;;;;;5033185;28;20132;-66
2021/10/18 21:52:10;;;;;;;6.32;3.10;;;;;;;;;;5043736;28;20071;-63
2021/10/18 21:54:36;;;;;;;7.57;3.50;;;;;;;;;;5033777;28;20033;-65
2021/10/18 21:57:03;;;;;;;5.43;2.45;;;;;;;;;;5033528;28;20021;-66
2021/10/18 21:59:29;;;;;;;7.57;3.15;;;;;;;;;;5033580;28;20026;-66
2021/10/18 22:01:55;;;;;;;6.20;2.38;;;;;;;;;;5033312;28;20021;-66
2021/10/18 22:04:21;;;;;;;6.07;3.00;;;;;;;;;;5033338;28;20452;-66
2021/10/18 22:06:47;;;;;;;6.10;2.70;;;;;;;;;;5033246;28;20021;-65
2021/10/18 22:09:13;;;;;;;5.75;3.00;;;;;;;;;;5033753;28;20028;-66
2021/10/18 22:11:39;;;;;;;5.90;2.80;;;;;;;;;;5033519;28;20100;-65
2021/10/18 22:14:06;;;;;;;5.57;2.67;;;;;;;;;;5033264;28;20018;-65
2021/10/18 22:16:32;;;;;;;5.55;2.38;;;;;;;;;;5033359;28;20484;-64
2021/10/18 22:18:58;;;;;;;5.28;2.53;;;;;;;;;;5052756;28;20029;-65
2021/10/18 22:21:24;;;;;;;5.30;2.47;;;;;;;;;;5051633;28;20431;-65
2021/10/18 22:23:52;;;;;;;5.10;2.55;;;;;;;;;;5053067;28;20027;-65
2021/10/18 22:26:18;;;;;;;5.25;2.60;;;;;;;;;;5052173;28;20028;-65
2021/10/18 22:28:45;;;;;;;5.75;2.70;;;;;;;;;;5052975;28;20037;-65
2021/10/18 22:31:11;;;;;;;4.75;2.40;;;;;;;;;;5052958;28;20021;-65
2021/10/18 22:33:37;;;;;;;4.70;2.40;;;;;;;;;;5051593;28;20099;-65
2021/10/18 22:36:03;;;;;;;5.03;2.10;;;;;;;;;;5051490;28;20112;-65
2021/10/18 22:38:29;;;;;;;5.10;2.53;;;;;;;;;;5052888;28;20017;-65
2021/10/18 22:40:57;;;;;;;4.53;2.25;;;;;;;;;;5052789;28;20094;-65
2021/10/18 22:43:24;;;;;;;3.88;1.92;;;;;;;;;;5051880;28;20024;-65
2021/10/18 22:45:50;;;;;;;7.18;2.53;;;;;;;;;;5052565;28;20021;-66
2021/10/18 22:48:16;;;;;;;4.10;2.05;;;;;;;;;;5052256;28;20017;-65
2021/10/18 22:50:42;;;;;;;4.97;2.53;;;;;;;;;;5051028;28;20021;-66
2021/10/18 22:53:08;;;;;;;5.00;2.60;;;;;;;;;;5032718;28;20026;-65
2021/10/18 22:55:34;;;;;;;5.05;2.30;;;;;;;;;;5032599;28;20025;-67
2021/10/18 22:58:03;;;;;;;5.57;2.60;;;;;;;;;;5032118;28;20095;-66
2021/10/18 23:00:29;;;;;;;4.97;2.20;;;;;;;;;;5033151;28;20079;-65
2021/10/18 23:02:55;;;;;;;7.63;3.30;;;;;;;;;;5032670;28;20021;-66
2021/10/18 23:05:22;;;;;;;5.65;2.80;;;;;;;;;;5032448;28;20032;-66
2021/10/18 23:07:49;;;;;;;4.40;2.75;;;;;;;;;;5032618;28;20048;-65
2021/10/18 23:10:15;;;;;;;5.05;2.75;;;;;;;;;;5032219;28;20045;-66
2021/10/18 23:12:41;;;;;;;7.18;3.08;;;;;;;;;;5032426;28;20100;-66
2021/10/18 23:15:07;;;;;;;4.90;2.40;;;;;;;;;;5032045;28;20048;-65
2021/10/18 23:17:33;;;;;;;5.68;2.90;;;;;;;;;;5033766;28;20075;-65
2021/10/18 23:19:59;;;;;;;6.00;3.00;;;;;;;;;;5032216;28;20531;-65
2021/10/18 23:22:26;;;;;;;5.65;2.90;;;;;;;;;;5032060;28;20392;-66
2021/10/18 23:24:52;;;;;;;4.75;2.65;;;;;;;;;;5030881;28;20025;-66
2021/10/18 23:27:18;;;;;;;5.88;2.67;;;;;;;;;;5030857;28;20068;-65
2021/10/18 23:29:45;;;;;;;5.60;2.70;;;;;;;;;;5031929;28;20048;-66
2021/10/18 23:32:11;;;;;;;5.30;2.63;;;;;;;;;;5032029;28;20690;-66
2021/10/18 23:34:38;;;;;;;5.25;2.65;;;;;;;;;;5031489;28;20048;-65
2021/10/18 23:37:05;;;;;;;5.65;3.10;;;;;;;;;;5032000;28;20045;-65
2021/10/18 23:39:31;;;;;;;5.68;2.97;;;;;;;;;;5031851;28;20390;-65
2021/10/18 23:41:57;;;;;;;7.43;2.83;;;;;;;;;;5032134;28;20026;-65
2021/10/18 23:44:23;;;;;;;4.60;2.60;;;;;;;;;;5032027;28;20100;-65
2021/10/18 23:46:49;;;;;;;5.85;2.58;;;;;;;;;;5031874;28;20091;-65
2021/10/18 23:49:15;;;;;;;5.15;2.85;;;;;;;;;;5031449;28;20412;-63
2021/10/18 23:51:41;;;;;;;5.07;2.85;;;;;;;;;;5032234;28;20108;-65
2021/10/18 23:54:07;;;;;;;6.70;2.97;;;;;;;;;;5031597;28;20025;-65
2021/10/18 23:56:34;;;;;;;5.18;2.70;;;;;;;;;;5031850;28;20022;-65
2021/10/18 23:59:00;;;;;;;6.25;3.30;;;;;;;;;;5031648;28;20026;-64
